KPVU

Provo Municipal Airport

Provo, Utah, USA
METAR KPVU 201656Z 25004KT 10SM CLR 09/03 A3039 RMK AO2 SLP286 T00940028
Observed Flight Rules
Oct-20 @ 16:56 UTC (16 minutes ago) Visual Flight Rules
Wind Visibility Clouds
250° at 4 knots 10 miles
  • Clear skies
Temperatures Readings
Current 9°C / 48°F
Dewpoint 3°C / 37°F
Humidity 66%
Altimeter 30.39" Hg
Pressure 1028.6 hPa
Elevation 1369
METAR KPVU 201656Z 25004KT 10SM CLR 09/03 A3039 RMK AO2 SLP286 T00940028
Observed Flight Rules
Oct-20 @ 16:56 UTC
(16 minutes ago)
VFR
Wind Visibility
250° at 4 knots 10 miles
Clouds
  • Clear skies
Temperature Dewpoint
9°C / 48°F 3°C / 37°F
Humidity Altimeter Pressure
66% 30.39" Hg 1028.6 hPa